Time;durP1;ratioP1;P1;durP2;ratioP2;P2;SDS_P1;SDS_P2;PMS_P1;PMS_P2;Temp;Humidity;BMP_temperature;BMP_pressure;BME280_temperature;BME280_humidity;BME280_pressure;Samples;Min_cycle;Max_cycle;Signal;HPM_P1;HPM_P2
2022/08/09 00:00:24;;;;;;;3.90;3.60;;;30.90;61.40;;;;;;5059188;28;20479;-65
2022/08/09 00:02:55;;;;;;;3.90;3.70;;;30.80;62.00;;;;;;5053272;28;20487;-65
2022/08/09 00:05:25;;;;;;;4.83;4.43;;;30.80;61.90;;;;;;5061012;28;20494;-67
2022/08/09 00:08:16;;;;;;;4.33;3.93;;;30.80;63.80;;;;;;5043429;28;20435;-65
2022/08/09 00:11:02;;;;;;;4.07;3.77;;;30.60;63.50;;;;;;5054566;28;20915;-65
2022/08/09 00:13:34;;;;;;;4.10;3.80;;;30.50;64.40;;;;;;5062509;28;20863;-64
2022/08/09 00:16:11;;;;;;;4.47;4.17;;;30.50;64.00;;;;;;5061173;28;20949;-66
2022/08/09 00:18:42;;;;;;;3.70;3.40;;;30.50;64.90;;;;;;5060320;28;20842;-65
2022/08/09 00:21:14;;;;;;;3.20;3.00;;;30.30;64.80;;;;;;5058511;28;20462;-66
2022/08/09 00:23:45;;;;;;;3.33;3.03;;;30.20;65.30;;;;;;5062943;28;20431;-66
2022/08/09 00:26:28;;;;;;;6.43;3.60;;;30.20;65.50;;;;;;5058982;28;20485;-64
2022/08/09 00:29:02;;;;;;;3.30;3.10;;;30.00;66.00;;;;;;5060077;28;20459;-66
2022/08/09 00:31:43;;;;;;;3.60;3.40;;;29.90;65.20;;;;;;5061841;28;21257;-65
2022/08/09 00:34:29;;;;;;;3.57;3.27;;;29.90;65.90;;;;;;5053198;28;20482;-64
2022/08/09 00:37:02;;;;;;;4.67;4.10;;;29.90;64.90;;;;;;5059896;28;20523;-67
2022/08/09 00:39:33;;;;;;;3.87;3.57;;;29.80;65.20;;;;;;5061297;28;20459;-66
2022/08/09 00:42:24;;;;;;;3.70;3.40;;;29.80;65.20;;;;;;5062590;28;20499;-65
2022/08/09 00:45:15;;;;;;;4.20;3.80;;;29.80;66.40;;;;;;5060720;28;20498;-66
2022/08/09 00:47:50;;;;;;;3.97;3.63;;;29.80;65.20;;;;;;5060708;28;20496;-66
2022/08/09 00:50:24;;;;;;;5.50;3.50;;;29.80;67.20;;;;;;5063679;28;20463;-65
2022/08/09 00:52:56;;;;;;;4.03;3.70;;;29.90;65.30;;;;;;5062677;28;20498;-66
2022/08/09 00:55:27;;;;;;;4.20;3.90;;;29.90;66.30;;;;;;5062742;28;20462;-65
2022/08/09 00:58:18;;;;;;;3.60;3.30;;;29.90;66.90;;;;;;5066444;28;20504;-67
2022/08/09 01:00:56;;;;;;;3.37;3.10;;;29.70;65.30;;;;;;5060282;28;20467;-68
2022/08/09 01:03:40;;;;;;;3.70;3.40;;;29.60;68.00;;;;;;5059442;28;20465;-66
2022/08/09 01:06:22;;;;;;;4.30;4.00;;;29.70;65.30;;;;;;5068406;28;20478;-66
2022/08/09 01:09:17;;;;;;;4.10;3.80;;;29.50;65.70;;;;;;5073890;28;20450;-64
2022/08/09 01:12:02;;;;;;;4.73;4.13;;;29.40;65.70;;;;;;5065649;28;20463;-66
2022/08/09 01:14:41;;;;;;;4.53;4.20;;;29.40;65.50;;;;;;5065941;28;20473;-66
2022/08/09 01:17:22;;;;;;;4.23;3.83;;;29.30;67.40;;;;;;5064922;28;20465;-65
2022/08/09 01:20:03;;;;;;;4.20;4.00;;;29.40;67.00;;;;;;5068272;28;20489;-65
2022/08/09 01:23:06;;;;;;;4.03;3.73;;;29.60;65.30;;;;;;5064623;28;20464;-65
2022/08/09 01:26:07;;;;;;;3.93;3.70;;;29.60;66.00;;;;;;5055529;28;20481;-65
2022/08/09 01:28:44;;;;;;;5.17;4.77;;;29.70;64.90;;;;;;5064316;28;20466;-64
2022/08/09 01:31:19;;;;;;;4.00;3.70;;;29.70;67.00;;;;;;5062356;28;20467;-65
2022/08/09 01:34:13;;;;;;;6.07;5.67;;;29.80;64.00;;;;;;5068277;28;20467;-66
2022/08/09 01:36:47;;;;;;;4.30;4.00;;;29.80;64.40;;;;;;5063621;28;20461;-65
2022/08/09 01:39:20;;;;;;;4.63;4.33;;;29.70;63.70;;;;;;5068415;28;20461;-66
2022/08/09 01:41:53;;;;;;;5.17;4.70;;;29.50;64.90;;;;;;5055467;28;20465;-66
2022/08/09 01:44:35;;;;;;;4.20;3.90;;;29.40;66.50;;;;;;5062899;28;20467;-65
2022/08/09 01:47:08;;;;;;;4.30;4.00;;;29.40;65.20;;;;;;5063608;28;20463;-65
2022/08/09 01:49:42;;;;;;;259.80;233.30;;;29.40;64.90;;;;;;5058673;28;20446;-66
2022/08/09 01:52:25;;;;;;;22.37;20.00;;;29.40;65.30;;;;;;5062897;28;20935;-65
2022/08/09 01:55:01;;;;;;;6.23;5.10;;;29.40;64.30;;;;;;5061946;28;20478;-66
2022/08/09 01:57:39;;;;;;;4.40;4.10;;;29.50;64.70;;;;;;5059312;28;20551;-66
2022/08/09 02:00:17;;;;;;;4.00;3.70;;;29.40;64.80;;;;;;5065697;28;20610;-64
2022/08/09 02:03:05;;;;;;;4.23;3.80;;;29.40;66.00;;;;;;5063187;28;20486;-65
2022/08/09 02:05:46;;;;;;;4.57;4.17;;;29.30;65.40;;;;;;5064611;28;20546;-67
2022/08/09 02:08:39;;;;;;;4.80;4.50;;;29.30;66.60;;;;;;5061168;28;20515;-66
2022/08/09 02:11:29;;;;;;;4.40;4.10;;;29.20;68.00;;;;;;5063143;28;20462;-65
2022/08/09 02:14:13;;;;;;;3.70;3.50;;;28.90;68.10;;;;;;5063217;28;20467;-66
2022/08/09 02:16:58;;;;;;;4.03;3.73;;;28.90;68.90;;;;;;5062090;28;20954;-66
2022/08/09 02:19:49;;;;;;;3.50;3.20;;;28.80;69.80;;;;;;5069543;28;20454;-65
2022/08/09 02:22:28;;;;;;;3.77;3.50;;;28.60;69.30;;;;;;5061325;28;20462;-66
2022/08/09 02:25:12;;;;;;;3.97;3.67;;;28.50;70.30;;;;;;5070122;28;20476;-65
2022/08/09 02:27:51;;;;;;;3.90;3.60;;;28.40;71.60;;;;;;5052518;28;20450;-66
2022/08/09 02:30:38;;;;;;;3.70;3.40;;;28.40;71.80;;;;;;5070049;28;20867;-65
2022/08/09 02:33:15;;;;;;;4.00;3.67;;;28.40;72.50;;;;;;5063150;28;20468;-65
2022/08/09 02:35:48;;;;;;;4.27;3.97;;;28.40;72.40;;;;;;5056944;28;20458;-65
2022/08/09 02:38:36;;;;;;;3.73;3.40;;;28.30;72.90;;;;;;5062066;28;20485;-65
2022/08/09 02:41:11;;;;;;;3.47;3.27;;;28.20;72.90;;;;;;5060059;28;20468;-65
2022/08/09 02:43:45;;;;;;;3.63;3.43;;;28.10;72.50;;;;;;5062995;28;20465;-65
2022/08/09 02:46:27;;;;;;;3.97;3.67;;;28.00;73.50;;;;;;5059066;28;20512;-66
2022/08/09 02:49:04;;;;;;;4.07;3.37;;;27.80;73.50;;;;;;5064377;28;20945;-66
2022/08/09 02:51:37;;;;;;;2.73;2.53;;;27.70;75.40;;;;;;5061390;28;20490;-65
2022/08/09 02:54:13;;;;;;;4.70;2.90;;;27.50;79.40;;;;;;5062993;28;20464;-66
2022/08/09 02:56:47;;;;;;;2.20;2.00;;;27.30;81.90;;;;;;5063196;28;20529;-66
2022/08/09 02:59:24;;;;;;;2.30;2.20;;;27.20;82.60;;;;;;5058919;28;20490;-64
2022/08/09 03:02:08;;;;;;;4.63;2.60;;;26.90;84.10;;;;;;5057945;28;20472;-66
2022/08/09 03:04:48;;;;;;;2.40;2.17;;;26.70;85.60;;;;;;5063605;28;20466;-65
2022/08/09 03:07:21;;;;;;;2.20;1.87;;;26.50;86.60;;;;;;5061243;28;20950;-65
2022/08/09 03:09:52;;;;;;;2.10;1.90;;;26.30;87.60;;;;;;5061843;28;20490;-65
2022/08/09 03:12:31;;;;;;;2.40;2.20;;;26.20;88.60;;;;;;5061427;28;20546;-65
2022/08/09 03:15:05;;;;;;;1.80;1.70;;;26.10;89.80;;;;;;5067971;28;20531;-65
2022/08/09 03:17:38;;;;;;;2.00;1.90;;;25.90;90.30;;;;;;5079492;28;20451;-65
2022/08/09 03:20:12;;;;;;;2.10;2.00;;;25.70;91.30;;;;;;5063242;28;20458;-64
2022/08/09 03:22:46;;;;;;;2.37;2.20;;;25.70;91.60;;;;;;5062107;28;20491;-66
2022/08/09 03:25:28;;;;;;;2.33;2.13;;;25.60;92.10;;;;;;5062811;28;20818;-65
2022/08/09 03:28:20;;;;;;;1.90;1.80;;;25.50;92.50;;;;;;5062554;28;20452;-65
2022/08/09 03:30:51;;;;;;;1.90;1.70;;;25.40;92.50;;;;;;5074436;28;20580;-66
2022/08/09 03:33:23;;;;;;;2.10;2.00;;;25.30;92.70;;;;;;5082807;28;20945;-65
2022/08/09 03:35:55;;;;;;;1.73;1.63;;;25.10;93.60;;;;;;5072390;28;20460;-65
2022/08/09 03:38:46;;;;;;;1.80;1.70;;;24.90;94.80;;;;;;5063091;28;20884;-65
2022/08/09 03:41:19;;;;;;;1.90;1.80;;;24.70;96.00;;;;;;5064501;28;20481;-65
2022/08/09 03:43:58;;;;;;;1.90;1.80;;;24.50;97.80;;;;;;5058089;28;20466;-64
2022/08/09 03:46:37;;;;;;;3.27;2.30;;;24.50;99.00;;;;;;5058294;28;20500;-65
2022/08/09 03:49:09;;;;;;;2.00;1.70;;;24.40;98.80;;;;;;5061747;28;20975;-65
2022/08/09 03:51:51;;;;;;;2.00;1.77;;;24.20;99.30;;;;;;5070846;28;20584;-66
2022/08/09 03:54:32;;;;;;;1.70;1.60;;;24.10;99.90;;;;;;5073583;28;20479;-64
2022/08/09 03:57:08;;;;;;;1.50;1.40;;;24.00;99.90;;;;;;5062419;28;20463;-66
2022/08/09 03:59:50;;;;;;;1.80;1.70;;;23.90;99.90;;;;;;5051126;28;20553;-65
2022/08/09 04:02:26;;;;;;;3.00;2.40;;;23.90;99.90;;;;;;5077105;28;20443;-65
2022/08/09 04:05:02;;;;;;;1.80;1.70;;;23.90;99.90;;;;;;5082225;28;20447;-65
2022/08/09 04:07:37;;;;;;;1.90;1.60;;;23.90;99.90;;;;;;5081215;28;20509;-64
2022/08/09 04:10:26;;;;;;;2.30;2.10;;;23.80;99.90;;;;;;5062747;28;20452;-65
2022/08/09 04:13:08;;;;;;;2.50;2.30;;;23.60;99.90;;;;;;5079892;28;20452;-65
2022/08/09 04:15:43;;;;;;;1.80;1.70;;;23.50;99.90;;;;;;5062444;28;20510;-66
2022/08/09 04:18:34;;;;;;;2.90;1.90;;;23.40;99.90;;;;;;5077194;28;20459;-65
2022/08/09 04:21:05;;;;;;;3.07;1.97;;;23.30;99.90;;;;;;5077057;28;20508;-65
2022/08/09 04:23:39;;;;;;;2.20;2.00;;;23.10;99.90;;;;;;5061897;28;20448;-65
2022/08/09 04:26:22;;;;;;;2.07;1.87;;;23.10;99.90;;;;;;5061781;28;20479;-66
2022/08/09 04:29:04;;;;;;;1.63;1.53;;;23.00;99.90;;;;;;5063189;28;20448;-65
2022/08/09 04:31:43;;;;;;;2.00;1.77;;;22.90;99.90;;;;;;5052154;28;20464;-65
2022/08/09 04:34:16;;;;;;;1.77;1.67;;;22.90;99.90;;;;;;5059928;28;20572;-65
2022/08/09 04:37:00;;;;;;;2.03;1.73;;;22.90;99.90;;;;;;5056555;28;20478;-64
2022/08/09 04:39:33;;;;;;;2.40;1.50;;;22.70;99.90;;;;;;5060781;28;20455;-64
2022/08/09 04:42:09;;;;;;;2.57;2.30;;;22.70;99.90;;;;;;5073258;28;20455;-65
2022/08/09 04:44:44;;;;;;;1.77;1.67;;;22.60;99.90;;;;;;5067124;28;20471;-65
2022/08/09 04:47:18;;;;;;;2.23;2.03;;;22.60;99.90;;;;;;5059545;28;20518;-65
2022/08/09 04:49:48;;;;;;;2.27;2.10;;;22.50;99.90;;;;;;5060331;28;20468;-65
2022/08/09 04:52:25;;;;;;;1.73;1.60;;;22.40;99.90;;;;;;5061808;28;20448;-65
2022/08/09 04:54:59;;;;;;;1.73;1.63;;;22.30;99.90;;;;;;5061627;28;20549;-66
2022/08/09 04:57:31;;;;;;;2.20;2.00;;;22.20;99.90;;;;;;5047349;28;20487;-65
2022/08/09 05:00:22;;;;;;;2.37;2.10;;;22.20;99.90;;;;;;5059379;28;20546;-65
2022/08/09 05:03:00;;;;;;;2.40;2.27;;;22.10;99.90;;;;;;5069448;28;20460;-66
2022/08/09 05:05:41;;;;;;;2.20;1.57;;;22.00;99.90;;;;;;5057148;28;20488;-66
2022/08/09 05:08:32;;;;;;;2.00;1.77;;;22.00;99.90;;;;;;5058519;28;20534;-66
2022/08/09 05:11:05;;;;;;;1.97;1.87;;;22.00;99.90;;;;;;5059537;28;20452;-66
2022/08/09 05:13:36;;;;;;;1.53;1.43;;;21.90;99.90;;;;;;5057940;28;20472;-66
2022/08/09 05:16:09;;;;;;;2.10;2.00;;;21.80;99.90;;;;;;5062544;28;20472;-66
2022/08/09 05:18:43;;;;;;;1.90;1.67;;;21.80;99.90;;;;;;5058401;28;20575;-66
2022/08/09 05:21:28;;;;;;;1.80;1.70;;;21.80;99.90;;;;;;5060185;28;20474;-66
2022/08/09 05:24:15;;;;;;;2.03;1.83;;;21.70;99.90;;;;;;5059819;28;20499;-66
2022/08/09 05:26:47;;;;;;;2.03;1.80;;;21.60;99.90;;;;;;5060754;28;20467;-66
2022/08/09 05:29:19;;;;;;;1.90;1.80;;;21.60;99.90;;;;;;5058297;28;20463;-66
2022/08/09 05:31:58;;;;;;;2.77;2.57;;;21.60;99.90;;;;;;5058524;28;20529;-67
2022/08/09 05:34:30;;;;;;;2.80;1.63;;;21.50;99.90;;;;;;5059145;28;20456;-66
2022/08/09 05:37:03;;;;;;;1.93;1.83;;;21.50;99.90;;;;;;5064865;28;20530;-66
2022/08/09 05:39:37;;;;;;;2.27;1.70;;;21.40;99.90;;;;;;5059902;28;20838;-66
2022/08/09 05:42:15;;;;;;;2.90;1.93;;;21.40;99.90;;;;;;5066806;28;20586;-66
2022/08/09 05:44:51;;;;;;;2.80;1.83;;;21.30;99.90;;;;;;5059813;28;20490;-66
2022/08/09 05:47:24;;;;;;;1.83;1.73;;;21.20;99.90;;;;;;5059377;28;20607;-66
2022/08/09 05:49:59;;;;;;;1.90;1.80;;;21.20;99.90;;;;;;5061097;28;20470;-66
2022/08/09 05:52:50;;;;;;;1.70;1.60;;;21.20;99.90;;;;;;5063363;28;20456;-66
2022/08/09 05:55:23;;;;;;;2.40;1.73;;;21.10;99.90;;;;;;5067045;28;20555;-66
2022/08/09 05:57:56;;;;;;;1.83;1.73;;;21.10;99.90;;;;;;5063114;28;20954;-66
2022/08/09 06:00:28;;;;;;;1.77;1.53;;;21.00;99.90;;;;;;5062741;28;20518;-66
2022/08/09 06:03:03;;;;;;;2.20;2.00;;;20.90;99.90;;;;;;5061307;28;20501;-66
2022/08/09 06:05:39;;;;;;;2.13;1.93;;;20.90;99.90;;;;;;5066612;28;20464;-66
2022/08/09 06:08:30;;;;;;;2.33;2.13;;;20.80;99.90;;;;;;5063057;28;20569;-66
2022/08/09 06:11:01;;;;;;;8.20;2.30;;;20.70;99.90;;;;;;5061858;28;20460;-65
2022/08/09 06:13:48;;;;;;;1.80;1.70;;;20.70;99.90;;;;;;5064349;28;20488;-65
2022/08/09 06:16:19;;;;;;;2.40;2.20;;;20.70;99.90;;;;;;5065569;28;20474;-65
2022/08/09 06:18:50;;;;;;;2.50;2.30;;;20.60;99.90;;;;;;5063719;28;20468;-65
2022/08/09 06:21:22;;;;;;;3.00;2.43;;;20.50;99.90;;;;;;5068892;28;20602;-65
2022/08/09 06:23:54;;;;;;;3.67;2.30;;;20.50;99.90;;;;;;5069388;28;20460;-65
2022/08/09 06:26:33;;;;;;;2.10;2.00;;;20.60;99.90;;;;;;5063707;28;20488;-68
2022/08/09 06:29:07;;;;;;;2.47;2.10;;;20.50;99.90;;;;;;5063207;28;20614;-66
2022/08/09 06:31:43;;;;;;;1.97;1.87;;;20.40;99.90;;;;;;5062320;28;20465;-66
2022/08/09 06:34:35;;;;;;;1.73;1.63;;;20.40;99.90;;;;;;5061559;28;20444;-67
2022/08/09 06:37:06;;;;;;;2.70;1.73;;;20.30;99.90;;;;;;5066583;28;20819;-65
2022/08/09 06:39:39;;;;;;;2.33;2.13;;;20.20;99.90;;;;;;5071937;28;20478;-65
2022/08/09 06:42:29;;;;;;;3.00;2.10;;;20.10;99.90;;;;;;5062968;28;20479;-66
2022/08/09 06:45:14;;;;;;;1.80;1.70;;;20.20;99.90;;;;;;5055826;28;20539;-66
2022/08/09 06:48:05;;;;;;;2.33;2.13;;;20.20;99.90;;;;;;5083614;28;20487;-65
2022/08/09 06:50:38;;;;;;;3.00;2.43;;;20.20;99.90;;;;;;5074097;28;20536;-67
2022/08/09 06:53:10;;;;;;;2.30;2.10;;;20.10;99.90;;;;;;5067019;28;20448;-66
2022/08/09 06:55:41;;;;;;;2.57;2.37;;;19.90;99.90;;;;;;5073881;28;20496;-66
2022/08/09 06:58:17;;;;;;;2.23;2.03;;;19.90;99.90;;;;;;5063971;28;20451;-66
2022/08/09 07:01:09;;;;;;;2.50;2.30;;;19.90;99.90;;;;;;5063589;28;20504;-66
2022/08/09 07:03:40;;;;;;;2.73;2.37;;;19.90;99.90;;;;;;5069747;28;20427;-66
2022/08/09 07:06:22;;;;;;;2.33;2.00;;;19.90;99.90;;;;;;5067135;28;20508;-67
2022/08/09 07:08:56;;;;;;;4.47;2.20;;;19.80;99.90;;;;;;5063699;28;20459;-66
2022/08/09 07:11:27;;;;;;;2.40;2.20;;;19.80;99.90;;;;;;5063416;28;20471;-66
2022/08/09 07:14:16;;;;;;;2.43;2.00;;;19.80;99.90;;;;;;5074432;28;20448;-66
2022/08/09 07:16:57;;;;;;;3.37;2.10;;;19.70;99.90;;;;;;5063645;28;20463;-66
2022/08/09 07:19:27;;;;;;;2.57;2.37;;;19.60;99.90;;;;;;5073008;28;20453;-66
2022/08/09 07:21:58;;;;;;;2.50;2.20;;;19.60;99.90;;;;;;5061146;28;20469;-66
2022/08/09 07:24:31;;;;;;;2.07;1.97;;;19.50;99.90;;;;;;5071578;28;20490;-66
2022/08/09 07:27:11;;;;;;;2.27;2.07;;;19.40;99.90;;;;;;5075651;28;20532;-66
2022/08/09 07:30:02;;;;;;;3.50;3.20;;;19.40;99.90;;;;;;5061550;28;20468;-66
2022/08/09 07:32:35;;;;;;;2.60;2.40;;;19.30;99.90;;;;;;5062011;28;20463;-66
2022/08/09 07:35:11;;;;;;;2.50;2.30;;;19.30;99.90;;;;;;5064603;28;20487;-66
2022/08/09 07:37:45;;;;;;;2.73;2.53;;;19.40;99.90;;;;;;5061398;28;20551;-66
2022/08/09 07:40:19;;;;;;;3.73;2.17;;;19.40;99.90;;;;;;5061820;28;20471;-66
2022/08/09 07:43:02;;;;;;;2.80;2.60;;;19.30;99.90;;;;;;5062701;28;20461;-66
2022/08/09 07:45:45;;;;;;;2.67;2.40;;;19.30;99.90;;;;;;5065235;28;20490;-66
2022/08/09 07:48:18;;;;;;;2.83;2.60;;;19.10;99.90;;;;;;5075868;28;20515;-66
2022/08/09 07:51:00;;;;;;;3.00;2.67;;;19.10;99.90;;;;;;5060491;28;20487;-66
2022/08/09 07:53:52;;;;;;;2.80;2.50;;;19.10;99.90;;;;;;5062324;28;20447;-65
2022/08/09 07:56:36;;;;;;;4.80;2.87;;;19.20;99.90;;;;;;5067482;28;20455;-65
2022/08/09 07:59:20;;;;;;;2.90;2.70;;;19.10;99.90;;;;;;5066510;28;20485;-66
2022/08/09 08:02:10;;;;;;;4.53;2.60;;;19.00;99.90;;;;;;5062146;28;20463;-66
2022/08/09 08:04:50;;;;;;;3.77;2.47;;;19.00;99.90;;;;;;5062475;28;20427;-66
2022/08/09 08:07:22;;;;;;;2.50;2.20;;;18.90;99.90;;;;;;5063515;28;20470;-67
2022/08/09 08:10:13;;;;;;;2.73;2.40;;;18.80;99.90;;;;;;5070218;28;20517;-67
2022/08/09 08:12:47;;;;;;;3.57;2.70;;;18.80;99.90;;;;;;5065639;28;20943;-66
2022/08/09 08:15:20;;;;;;;3.60;3.30;;;18.80;99.90;;;;;;5062373;28;20439;-66
2022/08/09 08:17:53;;;;;;;2.77;2.53;;;18.80;99.90;;;;;;5064747;28;20475;-66
2022/08/09 08:20:30;;;;;;;3.27;2.97;;;18.70;99.90;;;;;;5061255;28;20559;-66
2022/08/09 08:23:04;;;;;;;3.03;2.73;;;18.70;99.90;;;;;;5062007;28;20455;-66
2022/08/09 08:25:47;;;;;;;3.40;3.10;;;18.70;99.90;;;;;;5066924;28;20426;-66
2022/08/09 08:28:38;;;;;;;2.43;2.23;;;18.70;99.90;;;;;;5082044;28;20495;-67
2022/08/09 08:31:09;;;;;;;2.97;2.30;;;18.70;99.90;;;;;;5066367;28;20476;-66
2022/08/09 08:33:44;;;;;;;2.63;2.43;;;18.70;99.90;;;;;;5058687;28;20456;-66
2022/08/09 08:36:26;;;;;;;2.37;2.10;;;18.70;99.90;;;;;;5069941;28;20442;-66
2022/08/09 08:38:59;;;;;;;3.87;2.50;;;18.80;99.90;;;;;;5061155;28;20496;-66
2022/08/09 08:41:31;;;;;;;2.50;2.20;;;18.80;99.90;;;;;;5063129;28;20453;-66
2022/08/09 08:44:22;;;;;;;2.47;2.27;;;18.70;99.90;;;;;;5060321;28;20533;-66
2022/08/09 08:46:58;;;;;;;2.50;2.30;;;18.70;99.90;;;;;;5075799;28;20792;-66
2022/08/09 08:49:42;;;;;;;3.70;3.40;;;18.70;99.90;;;;;;5061609;28;20525;-66
2022/08/09 08:52:24;;;;;;;3.00;2.70;;;18.60;99.90;;;;;;5059164;28;20467;-66
2022/08/09 08:55:16;;;;;;;3.17;2.87;;;18.60;99.90;;;;;;5062085;28;20461;-66
2022/08/09 08:57:53;;;;;;;2.93;2.57;;;18.50;99.90;;;;;;5059668;28;20461;-66
2022/08/09 09:00:30;;;;;;;3.33;3.03;;;18.50;99.90;;;;;;5063387;28;20513;-66
2022/08/09 09:03:04;;;;;;;3.40;3.07;;;18.40;99.90;;;;;;5073313;28;20509;-66
2022/08/09 09:05:55;;;;;;;3.07;2.70;;;18.40;99.90;;;;;;5059064;28;20544;-66
2022/08/09 09:08:37;;;;;;;3.33;3.03;;;18.30;99.90;;;;;;5069346;28;20456;-66
2022/08/09 09:11:12;;;;;;;3.40;3.10;;;18.30;99.90;;;;;;5060968;28;20458;-66
2022/08/09 09:13:50;;;;;;;3.03;2.57;;;18.30;99.90;;;;;;5062282;28;20451;-66
2022/08/09 09:16:31;;;;;;;3.57;2.93;;;18.30;99.90;;;;;;5060482;28;21258;-66
2022/08/09 09:19:07;;;;;;;3.60;3.30;;;18.40;99.90;;;;;;5057266;28;20488;-66
2022/08/09 09:22:05;;;;;;;3.00;2.70;;;18.40;99.90;;;;;;5059298;28;20456;-66
2022/08/09 09:24:44;;;;;;;4.60;3.20;;;18.30;99.90;;;;;;5059683;28;20435;-66
2022/08/09 09:27:19;;;;;;;3.03;2.57;;;18.30;99.90;;;;;;5063000;28;20433;-66
2022/08/09 09:30:13;;;;;;;3.80;3.00;;;18.30;99.90;;;;;;5065470;28;20502;-66
2022/08/09 09:33:11;;;;;;;3.30;3.00;;;18.40;99.90;;;;;;5060969;28;20526;-66
2022/08/09 09:35:56;;;;;;;3.67;3.33;;;18.30;99.90;;;;;;5064715;28;20444;-66
2022/08/09 09:38:43;;;;;;;2.90;2.70;;;18.30;99.90;;;;;;5063020;28;20448;-66
2022/08/09 09:41:29;;;;;;;3.40;3.00;;;18.30;99.90;;;;;;5064066;28;20446;-66
2022/08/09 09:44:25;;;;;;;3.23;2.93;;;18.30;99.90;;;;;;5065832;28;20422;-66
2022/08/09 09:47:07;;;;;;;3.60;3.17;;;18.40;99.90;;;;;;5061768;28;20438;-66
2022/08/09 09:49:39;;;;;;;3.10;2.80;;;18.40;99.90;;;;;;5054217;28;20467;-66
2022/08/09 09:52:30;;;;;;;3.43;2.90;;;18.40;99.90;;;;;;5068690;28;20456;-66
2022/08/09 09:55:11;;;;;;;4.10;3.57;;;18.30;99.90;;;;;;5064749;28;20467;-66
2022/08/09 09:58:06;;;;;;;2.93;2.73;;;18.30;99.90;;;;;;5063384;28;20547;-66
2022/08/09 10:00:49;;;;;;;3.27;2.97;;;18.30;99.90;;;;;;5068234;28;20499;-66
2022/08/09 10:03:43;;;;;;;3.43;3.13;;;18.40;99.90;;;;;;5064185;28;20563;-65
2022/08/09 10:06:28;;;;;;;3.80;2.90;;;18.30;99.90;;;;;;5060181;28;20464;-65
2022/08/09 10:09:03;;;;;;;3.43;2.03;;;18.30;99.90;;;;;;5062013;28;20522;-65
2022/08/09 10:11:58;;;;;;;3.43;3.13;;;18.30;99.90;;;;;;5069960;28;20505;-66
2022/08/09 10:14:51;;;;;;;3.10;2.77;;;18.20;99.90;;;;;;5057494;28;20456;-65
2022/08/09 10:17:22;;;;;;;3.80;2.60;;;18.20;99.90;;;;;;5063208;28;20450;-65
2022/08/09 10:20:27;;;;;;;2.70;2.43;;;18.10;99.90;;;;;;5065504;28;20507;-66
2022/08/09 10:23:17;;;;;;;2.70;2.50;;;18.10;99.90;;;;;;5073155;28;20845;-66
2022/08/09 10:25:50;;;;;;;2.90;2.60;;;18.10;99.90;;;;;;5058740;28;20496;-66
2022/08/09 10:28:39;;;;;;;3.17;2.87;;;18.10;99.90;;;;;;5062998;28;20456;-66
2022/08/09 10:31:12;;;;;;;3.13;2.80;;;18.00;99.90;;;;;;5062551;28;20468;-66
2022/08/09 10:34:03;;;;;;;3.50;2.77;;;18.10;99.90;;;;;;5064796;28;20440;-66
2022/08/09 10:36:48;;;;;;;4.07;3.10;;;18.00;99.90;;;;;;5061777;28;20463;-65
2022/08/09 10:39:19;;;;;;;3.70;3.40;;;18.00;99.90;;;;;;5070294;28;20437;-66
2022/08/09 10:41:55;;;;;;;3.80;2.90;;;18.10;99.90;;;;;;5066806;28;20452;-65
2022/08/09 10:44:29;;;;;;;3.87;3.40;;;18.10;99.90;;;;;;5063339;28;20443;-65
2022/08/09 10:47:30;;;;;;;3.37;2.73;;;18.10;99.90;;;;;;5062040;28;20555;-66
2022/08/09 10:50:27;;;;;;;3.50;3.10;;;18.10;99.90;;;;;;5061367;28;20495;-66
2022/08/09 10:53:19;;;;;;;3.33;3.00;;;18.20;99.90;;;;;;5067879;28;20943;-66
2022/08/09 10:56:12;;;;;;;4.37;3.77;;;18.10;99.90;;;;;;5066215;28;20475;-66
2022/08/09 10:58:52;;;;;;;3.83;3.53;;;18.10;99.90;;;;;;5064359;28;20469;-66
2022/08/09 11:01:40;;;;;;;4.57;4.03;;;18.20;99.90;;;;;;5064522;28;20567;-65
2022/08/09 11:04:32;;;;;;;4.10;3.70;;;18.20;99.90;;;;;;5060640;28;20529;-66
2022/08/09 11:07:29;;;;;;;4.27;3.87;;;18.10;99.90;;;;;;5061696;28;20458;-66
2022/08/09 11:10:55;;;;;;;4.43;3.60;;;18.10;99.90;;;;;;5069144;28;20436;-66
2022/08/09 11:13:37;;;;;;;4.13;3.70;;;18.10;99.90;;;;;;5053230;28;20486;-66
2022/08/09 11:16:38;;;;;;;4.13;3.63;;;18.00;99.90;;;;;;5065868;28;20460;-66
2022/08/09 11:19:10;;;;;;;4.93;3.80;;;18.10;99.90;;;;;;5063339;28;20492;-66
2022/08/09 11:21:59;;;;;;;4.20;3.80;;;18.10;99.90;;;;;;5065752;28;20477;-65
2022/08/09 11:25:11;;;;;;;3.60;3.30;;;18.10;99.90;;;;;;5063742;28;20444;-66
2022/08/09 11:27:45;;;;;;;4.50;3.40;;;18.00;99.90;;;;;;5059864;28;20443;-65
2022/08/09 11:30:37;;;;;;;4.30;3.47;;;18.00;99.90;;;;;;5060964;28;20430;-66
2022/08/09 11:33:33;;;;;;;8.07;3.40;;;18.00;99.90;;;;;;5060743;28;20593;-66
2022/08/09 11:36:05;;;;;;;4.03;3.50;;;18.10;99.90;;;;;;5072526;28;20538;-66
2022/08/09 11:38:38;;;;;;;4.20;3.80;;;18.10;99.90;;;;;;5062237;28;20458;-66
2022/08/09 11:41:30;;;;;;;4.40;3.97;;;18.10;99.90;;;;;;5065729;28;20486;-66
2022/08/09 11:44:09;;;;;;;4.90;4.20;;;18.10;99.90;;;;;;5068669;28;20452;-66
2022/08/09 11:46:56;;;;;;;4.40;3.80;;;18.00;99.90;;;;;;5052987;28;20468;-66
2022/08/09 11:49:58;;;;;;;3.63;3.33;;;18.10;99.90;;;;;;5065454;28;20464;-66
2022/08/09 11:53:22;;;;;;;3.90;3.47;;;18.10;99.90;;;;;;5062131;28;20431;-66
2022/08/09 11:56:28;;;;;;;4.60;3.50;;;18.10;99.90;;;;;;5066036;28;20423;-66
2022/08/09 11:59:27;;;;;;;3.77;3.43;;;18.20;99.90;;;;;;5060362;28;20484;-66
2022/08/09 12:02:02;;;;;;;4.77;4.20;;;18.30;99.90;;;;;;5068036;28;20498;-66
2022/08/09 12:04:54;;;;;;;5.03;4.20;;;18.30;99.90;;;;;;5064256;28;20448;-66
2022/08/09 12:07:31;;;;;;;4.67;3.77;;;18.30;99.90;;;;;;5061657;28;20453;-67
2022/08/09 12:10:12;;;;;;;5.07;3.70;;;18.20;99.90;;;;;;5061127;28;20975;-65
2022/08/09 12:13:04;;;;;;;4.30;3.90;;;18.20;99.90;;;;;;5067312;28;20605;-65
2022/08/09 12:16:01;;;;;;;4.27;3.80;;;18.20;99.90;;;;;;5061173;28;20462;-65
2022/08/09 12:18:33;;;;;;;4.70;4.20;;;18.20;99.90;;;;;;5060468;28;20463;-66
2022/08/09 12:21:08;;;;;;;5.87;4.20;;;18.20;99.90;;;;;;5060532;28;20503;-65
2022/08/09 12:24:02;;;;;;;4.20;3.80;;;18.20;99.90;;;;;;5061834;28;20456;-66
2022/08/09 12:26:44;;;;;;;3.53;3.23;;;18.20;99.90;;;;;;5062485;28;20464;-66
2022/08/09 12:29:37;;;;;;;7.13;4.70;;;18.10;99.90;;;;;;5067727;28;20452;-65
2022/08/09 12:32:27;;;;;;;4.67;4.27;;;18.20;99.90;;;;;;5060603;28;20488;-66
2022/08/09 12:35:01;;;;;;;4.30;3.60;;;18.30;99.90;;;;;;5057433;28;20447;-66
2022/08/09 12:37:34;;;;;;;5.07;4.10;;;18.30;99.90;;;;;;5074792;28;20459;-66
2022/08/09 12:40:21;;;;;;;5.30;4.70;;;18.30;99.90;;;;;;5071026;28;20452;-65
2022/08/09 12:42:54;;;;;;;4.60;4.20;;;18.20;99.90;;;;;;5060628;28;20467;-65
2022/08/09 12:45:26;;;;;;;4.90;4.50;;;18.20;99.90;;;;;;5062598;28;20468;-66
2022/08/09 12:48:06;;;;;;;4.93;4.10;;;18.40;99.90;;;;;;5076922;28;20474;-66
2022/08/09 12:50:57;;;;;;;5.30;4.80;;;18.30;99.90;;;;;;5055421;28;20459;-66
2022/08/09 12:53:36;;;;;;;4.80;4.30;;;18.20;99.90;;;;;;5081596;28;20915;-66
2022/08/09 12:56:15;;;;;;;5.90;5.30;;;18.20;99.90;;;;;;5081148;28;20444;-66
2022/08/09 12:59:10;;;;;;;5.73;4.30;;;18.30;99.90;;;;;;5066693;28;20492;-65
2022/08/09 13:01:45;;;;;;;5.40;4.90;;;18.30;99.90;;;;;;5056494;28;20479;-66
2022/08/09 13:04:19;;;;;;;6.10;5.10;;;18.30;99.90;;;;;;5064463;28;20494;-65
2022/08/09 13:07:15;;;;;;;5.60;4.13;;;18.30;99.90;;;;;;5063413;28;20464;-66
2022/08/09 13:10:03;;;;;;;5.60;4.30;;;18.30;99.90;;;;;;5070743;28;20452;-66
2022/08/09 13:12:34;;;;;;;5.00;4.57;;;18.30;99.90;;;;;;5070773;28;20496;-65
2022/08/09 13:15:25;;;;;;;5.50;4.37;;;18.20;99.90;;;;;;5067664;28;20446;-66
2022/08/09 13:18:04;;;;;;;5.57;4.43;;;18.20;99.90;;;;;;5066243;28;20462;-66
2022/08/09 13:20:46;;;;;;;4.67;4.20;;;18.20;99.90;;;;;;5062541;28;20506;-66
2022/08/09 13:23:43;;;;;;;5.87;4.43;;;18.20;99.90;;;;;;5064942;28;21261;-65
2022/08/09 13:26:37;;;;;;;6.30;4.43;;;18.20;99.90;;;;;;5065655;28;20479;-65
2022/08/09 13:29:10;;;;;;;5.90;4.80;;;18.20;99.90;;;;;;5064424;28;20813;-66
2022/08/09 13:32:00;;;;;;;5.53;4.40;;;18.30;99.90;;;;;;5064553;28;20474;-66
2022/08/09 13:34:50;;;;;;;3.87;3.43;;;18.30;99.90;;;;;;5064184;28;20495;-66
2022/08/09 13:37:21;;;;;;;4.77;3.87;;;18.20;99.90;;;;;;5066319;28;20470;-66
2022/08/09 13:40:13;;;;;;;6.07;5.30;;;18.30;99.90;;;;;;5079506;28;20446;-66
2022/08/09 13:43:04;;;;;;;4.80;4.30;;;18.40;99.90;;;;;;5080279;28;21016;-66
2022/08/09 13:45:39;;;;;;;5.77;4.03;;;18.40;99.90;;;;;;5069825;28;20470;-66
2022/08/09 13:48:30;;;;;;;5.43;4.50;;;18.50;99.90;;;;;;5066054;28;20448;-66
2022/08/09 13:51:02;;;;;;;5.13;4.63;;;18.50;99.90;;;;;;5070827;28;20468;-66
2022/08/09 13:53:38;;;;;;;4.90;4.30;;;18.50;99.90;;;;;;5063733;28;20465;-65
2022/08/09 13:56:13;;;;;;;6.90;5.10;;;18.60;99.90;;;;;;5072381;28;20439;-65